Time;durP1;ratioP1;P1;durP2;ratioP2;P2;SDS_P1;SDS_P2;PMS_P1;PMS_P2;Temp;Humidity;BMP_temperature;BMP_pressure;BME280_temperature;BME280_humidity;BME280_pressure;Samples;Min_cycle;Max_cycle;Signal;HPM_P1;HPM_P2
2022/11/16 00:04:18;;;;;;;161.80;82.00;;;;;;;7.74;86.88;97833.42;420619;1299;97873;-41
2022/11/16 00:14:28;;;;;;;162.60;83.20;;;;;;;7.84;86.88;97820.39;420551;1299;109397;-40
2022/11/16 00:24:35;;;;;;;213.50;106.80;;;;;;;7.69;86.79;97814.90;420599;1292;97979;-41
2022/11/16 00:34:42;;;;;;;176.90;91.80;;;;;;;7.65;87.25;97808.66;420579;1291;110610;-40
2022/11/16 00:44:48;;;;;;;157.50;84.70;;;;;;;7.64;87.06;97807.52;420633;1295;106132;-40
2022/11/16 00:54:56;;;;;;;157.60;83.80;;;;;;;7.65;87.23;97807.09;420551;1298;97756;-39
2022/11/16 01:05:03;;;;;;;137.70;76.10;;;;;;;7.78;87.32;97808.66;420677;1299;106434;-41
2022/11/16 01:15:11;;;;;;;139.70;78.90;;;;;;;7.85;87.31;97803.40;420501;1299;97870;-41
2022/11/16 01:25:19;;;;;;;144.00;77.70;;;;;;;7.91;87.39;97783.63;420588;1295;111114;-40
2022/11/16 01:35:27;;;;;;;145.20;81.10;;;;;;;7.94;87.23;97775.77;420624;1292;108813;-40
2022/11/16 01:45:35;;;;;;;151.00;81.50;;;;;;;7.62;86.93;97754.45;420451;1289;97911;-40
2022/11/16 01:55:44;;;;;;;143.90;80.20;;;;;;;7.63;87.39;97746.89;420623;1285;108169;-41
2022/11/16 02:06:01;;;;;;;138.30;77.30;;;;;;;7.61;87.31;97752.27;421618;1277;97487;-39
2022/11/16 02:16:08;;;;;;;144.30;72.10;;;;;;;7.26;86.98;97748.95;420983;1291;109703;-38
2022/11/16 02:26:22;;;;;;;137.70;73.30;;;;;;;6.98;86.88;97752.67;421110;1289;107928;-41
2022/11/16 02:36:29;;;;;;;138.00;76.10;;;;;;;6.81;87.15;97742.27;421101;1298;97626;-41
2022/11/16 02:46:34;;;;;;;133.00;66.20;;;;;;;6.69;87.04;97731.18;421161;1291;109601;-39
2022/11/16 02:56:43;;;;;;;116.50;63.80;;;;;;;6.49;87.23;97708.80;421105;1295;97912;-40
2022/11/16 03:06:53;;;;;;;108.40;56.90;;;;;;;6.48;87.46;97709.66;421160;1291;109737;-41
2022/11/16 03:17:03;;;;;;;100.00;54.40;;;;;;;6.41;87.64;97705.50;421083;1284;107859;-41
2022/11/16 03:27:13;;;;;;;;;;;;;;;6.19;87.44;97697.60;421006;1298;96649;-41
2022/11/16 03:37:22;;;;;;;94.20;50.50;;;;;;;5.96;87.85;97701.68;420888;1299;107653;-40
2022/11/16 03:47:29;;;;;;;101.90;52.80;;;;;;;5.86;87.98;97694.76;420976;1298;97515;-39
2022/11/16 03:57:37;;;;;;;108.30;54.10;;;;;;;5.87;88.23;97688.60;420942;1298;110755;-40
2022/11/16 04:28:35;;;;;;;80.20;41.70;;;;;;;5.61;88.60;97671.84;421027;1291;107271;-41
2022/11/16 04:38:43;;;;;;;69.90;37.20;;;;;;;5.44;88.94;97671.55;421086;1298;97490;-40
2022/11/16 04:48:50;;;;;;;68.20;36.00;;;;;;;5.32;89.13;97656.62;421061;1297;109815;-40
2022/11/16 04:58:58;;;;;;;65.80;34.90;;;;;;;5.27;89.29;97657.13;420900;1298;108067;-41
2022/11/16 05:09:05;;;;;;;76.10;35.80;;;;;;;5.22;89.50;97647.91;421081;1298;96708;-40
2022/11/16 05:29:38;;;;;;;66.20;33.10;;;;;;;5.13;89.95;97638.80;421017;1296;96697;-40
2022/11/16 05:39:45;;;;;;;61.10;31.80;;;;;;;5.12;90.20;97648.20;421012;1296;110837;-40
2022/11/16 05:49:52;;;;;;;69.80;30.60;;;;;;;5.14;90.16;97653.27;420970;1287;107195;-40
2022/11/16 05:59:59;;;;;;;58.70;26.00;;;;;;;5.06;90.20;97645.30;421092;1299;96731;-41
2022/11/16 06:10:08;;;;;;;67.60;27.30;;;;;;;5.01;90.32;97632.86;421038;1289;108255;-40
2022/11/16 06:20:15;;;;;;;52.20;25.70;;;;;;;4.94;90.87;97622.05;421122;1298;97873;-39
2022/11/16 06:30:22;;;;;;;55.00;25.60;;;;;;;4.88;91.23;97619.53;421065;1296;110520;-40
2022/11/16 06:40:29;;;;;;;46.80;20.70;;;;;;;4.84;91.58;97619.48;421086;1292;109462;-39
2022/11/16 06:50:36;;;;;;;39.70;17.70;;;;;;;4.84;91.53;97615.95;421048;1289;97471;-41
2022/11/16 07:00:44;;;;;;;26.80;13.50;;;;;;;4.83;91.74;97609.19;421183;1291;107094;-39
2022/11/16 07:10:51;;;;;;;19.80;12.30;;;;;;;4.79;92.20;97608.95;421051;1298;97896;-40
2022/11/16 07:20:58;;;;;;;23.50;11.00;;;;;;;4.78;92.41;97615.09;421045;1295;110635;-41
2022/11/16 07:31:05;;;;;;;17.80;10.20;;;;;;;4.78;92.47;97606.27;420991;1289;109732;-41
2022/11/16 07:41:15;;;;;;;14.40;10.10;;;;;;;4.81;92.48;97596.29;421054;1292;97866;-39
2022/11/16 07:51:23;;;;;;;16.40;10.60;;;;;;;4.81;92.36;97590.31;420849;1299;107589;-39
2022/11/16 08:01:30;;;;;;;18.70;10.40;;;;;;;4.82;92.39;97583.90;421337;1299;97882;-40
2022/11/16 08:31:51;;;;;;;16.40;8.20;;;;;;;4.84;92.95;97571.05;420967;1299;98137;-42
2022/11/16 08:41:58;;;;;;;19.60;8.70;;;;;;;4.80;93.16;97576.67;420977;1299;108587;-40
2022/11/16 08:52:04;;;;;;;11.00;8.00;;;;;;;4.80;93.19;97574.25;420862;1298;96909;-38
2022/11/16 09:02:10;;;;;;;15.20;8.30;;;;;;;4.82;93.08;97574.98;420943;1299;110196;-40
2022/11/16 09:12:18;;;;;;;12.20;7.90;;;;;;;4.82;93.04;97584.17;420957;1295;107945;-41
2022/11/16 09:22:26;;;;;;;14.10;8.70;;;;;;;4.84;93.02;97584.16;420847;1298;97876;-40
2022/11/16 09:32:33;;;;;;;9.90;7.30;;;;;;;4.85;93.12;97580.84;420948;1299;107596;-40
2022/11/16 09:42:41;;;;;;;15.90;9.50;;;;;;;4.83;93.19;97580.06;420842;1299;96670;-40
2022/11/16 09:52:51;;;;;;;20.00;10.80;;;;;;;4.83;93.25;97579.86;420895;1303;109993;-40
2022/11/16 10:02:58;;;;;;;17.40;10.00;;;;;;;4.78;93.29;97574.19;421030;1299;108569;-41
2022/11/16 10:13:03;;;;;;;23.10;13.60;;;;;;;4.69;93.47;97570.20;420873;1303;97867;-41
2022/11/16 10:23:16;;;;;;;25.70;14.40;;;;;;;4.66;93.64;97566.54;420947;1291;107887;-40
2022/11/16 10:33:26;;;;;;;18.00;10.60;;;;;;;4.65;93.56;97560.98;420882;1299;96957;-41
2022/11/16 10:43:33;;;;;;;21.70;11.10;;;;;;;4.59;93.67;97547.36;420906;1299;109353;-41
2022/11/16 11:03:50;;;;;;;14.30;8.80;;;;;;;4.56;93.68;97539.10;420959;1295;97927;-40
2022/11/16 11:24:15;;;;;;;13.70;8.70;;;;;;;4.54;93.87;97528.85;421018;1302;97781;-41
2022/11/16 11:34:46;;;;;;;12.80;7.40;;;;;;;4.57;93.90;97526.56;420924;1295;109855;-40
2022/11/16 11:44:56;;;;;;;13.40;7.00;;;;;;;4.61;93.93;97526.88;421234;1287;107557;-41
2022/11/16 11:55:02;;;;;;;8.90;6.10;;;;;;;4.62;93.94;97527.17;421544;1299;97535;-41
2022/11/16 12:05:23;;;;;;;18.60;8.80;;;;;;;4.60;94.28;97524.51;421558;1302;108254;-40
2022/11/16 12:15:58;;;;;;;11.10;5.00;;;;;;;4.59;94.38;97518.40;421467;1299;97876;-39
2022/11/16 12:26:07;;;;;;;7.50;5.30;;;;;;;4.63;94.52;97510.34;421625;1299;110989;-41
2022/11/16 12:36:14;;;;;;;10.40;6.00;;;;;;;4.67;94.40;97503.32;421547;1302;107979;-39
2022/11/16 12:46:23;;;;;;;8.50;5.30;;;;;;;4.66;94.48;97501.61;421617;1295;97098;-39
2022/11/16 12:56:31;;;;;;;5.90;3.90;;;;;;;4.66;94.39;97495.64;421698;1299;108027;-39
2022/11/16 13:06:36;;;;;;;7.70;5.20;;;;;;;4.65;94.46;97486.98;421527;1289;97891;-40
2022/11/16 13:16:43;;;;;;;6.80;4.60;;;;;;;4.63;94.50;97478.52;421715;1297;110184;-41
2022/11/16 13:26:54;;;;;;;7.60;5.00;;;;;;;4.59;94.60;97472.12;421539;1297;106931;-40
2022/11/16 13:37:01;;;;;;;5.20;4.30;;;;;;;4.56;94.75;97467.64;421637;1296;97522;-40
2022/11/16 13:47:23;;;;;;;11.90;6.50;;;;;;;4.56;94.74;97465.75;421642;1296;108754;-38
2022/11/16 13:57:33;;;;;;;8.70;5.70;;;;;;;4.58;94.65;97465.64;421665;1299;97698;-38
2022/11/16 14:17:49;;;;;;;7.40;5.40;;;;;;;4.56;94.83;97449.69;421662;1292;108780;-39
2022/11/16 14:28:02;;;;;;;27.40;14.80;;;;;;;4.59;94.82;97460.33;421646;1295;98005;-39
2022/11/16 14:38:21;;;;;;;11.50;7.60;;;;;;;4.53;94.83;97459.95;421491;1302;108142;-41
2022/11/16 14:48:29;;;;;;;6.70;5.60;;;;;;;4.49;94.87;97459.27;421488;1299;96699;-41
2022/11/16 14:58:37;;;;;;;4.10;3.70;;;;;;;4.43;95.01;97460.30;421497;1296;110157;-40
2022/11/16 15:08:45;;;;;;;4.80;4.30;;;;;;;4.35;95.28;97466.16;421546;1292;107967;-40
2022/11/16 15:18:57;;;;;;;6.90;5.40;;;;;;;4.29;95.39;97462.60;421576;1296;97478;-41
2022/11/16 15:29:04;;;;;;;8.40;6.60;;;;;;;4.27;95.24;97457.91;422027;1299;107091;-41
2022/11/16 15:39:10;;;;;;;7.20;5.70;;;;;;;4.23;95.46;97465.42;421505;1297;97905;-41
2022/11/16 15:49:18;;;;;;;7.10;5.90;;;;;;;4.19;95.46;97472.20;421622;1299;109086;-42
2022/11/16 15:59:25;;;;;;;8.90;5.20;;;;;;;4.06;95.70;97477.01;421565;1289;107585;-40
2022/11/16 16:09:35;;;;;;;9.60;6.30;;;;;;;3.97;95.59;97480.40;423474;1287;97688;-39
2022/11/16 16:19:45;;;;;;;8.10;4.40;;;;;;;3.91;95.58;97481.98;421628;1299;108908;-40
2022/11/16 16:29:53;;;;;;;4.90;3.80;;;;;;;3.69;95.66;97476.40;421626;1281;97899;-41
2022/11/16 16:39:59;;;;;;;3.60;2.80;;;;;;;3.46;95.66;97477.61;421623;1299;109535;-40
2022/11/16 16:50:04;;;;;;;7.90;4.70;;;;;;;3.31;95.55;97481.02;421631;1294;108727;-43
2022/11/16 17:00:13;;;;;;;9.60;4.30;;;;;;;3.18;95.61;97480.27;421577;1299;97863;-40
2022/11/16 17:10:18;;;;;;;9.70;5.00;;;;;;;3.08;95.41;97492.45;421577;1293;107183;-41
2022/11/16 17:20:25;;;;;;;10.40;5.70;;;;;;;3.04;95.39;97499.77;421515;1299;97827;-40
2022/11/16 17:30:32;;;;;;;5.60;4.10;;;;;;;2.97;95.33;97512.16;422418;1297;110142;-40
2022/11/16 17:50:47;;;;;;;8.10;3.20;;;;;;;2.78;95.29;97504.99;421672;1299;97235;-41
2022/11/16 18:00:55;;;;;;;4.10;2.50;;;;;;;2.72;95.28;97519.36;421544;1296;108402;-41
2022/11/16 18:11:04;;;;;;;8.20;3.90;;;;;;;2.67;95.19;97529.39;421646;1291;97917;-40
2022/11/16 18:21:13;;;;;;;8.10;4.70;;;;;;;2.67;95.20;97514.65;421717;1292;110287;-41
2022/11/16 18:31:28;;;;;;;7.20;5.10;;;;;;;2.68;95.21;97515.13;421767;1289;107583;-41
2022/11/16 18:41:37;;;;;;;7.10;5.00;;;;;;;2.71;95.24;97505.92;423245;1292;97864;-40
2022/11/16 18:51:41;;;;;;;9.40;5.40;;;;;;;2.73;95.20;97500.40;421540;1297;107622;-41
2022/11/16 19:01:48;;;;;;;4.90;3.30;;;;;;;2.72;95.07;97498.52;421600;1299;97869;-40
2022/11/16 19:11:55;;;;;;;3.60;2.70;;;;;;;2.70;95.16;97487.38;421555;1297;110090;-40
2022/11/16 19:22:02;;;;;;;4.40;2.70;;;;;;;2.67;95.12;97488.55;422313;1291;108513;-40
2022/11/16 19:32:10;;;;;;;3.60;3.00;;;;;;;2.66;95.05;97486.27;421682;1287;97880;-40
2022/11/16 19:42:16;;;;;;;5.00;2.90;;;;;;;2.66;95.17;97486.11;421575;1284;108189;-39
2022/11/16 19:52:23;;;;;;;3.20;2.40;;;;;;;2.65;95.22;97488.00;421471;1289;97483;-40
2022/11/16 20:02:30;;;;;;;4.20;3.30;;;;;;;2.65;95.35;97502.02;421541;1299;110552;-41
2022/11/16 20:12:38;;;;;;;6.10;3.90;;;;;;;2.72;95.26;97501.53;421573;1299;107726;-40
2022/11/16 20:22:46;;;;;;;9.30;5.00;;;;;;;2.74;95.11;97508.19;421547;1281;96651;-41
2022/11/16 20:32:55;;;;;;;7.40;2.60;;;;;;;2.73;95.32;97508.97;421573;1284;108363;-40
2022/11/16 20:43:02;;;;;;;4.90;3.70;;;;;;;2.75;95.37;97501.40;421574;1290;97791;-40
2022/11/16 20:53:08;;;;;;;5.30;4.10;;;;;;;2.79;95.34;97493.02;421485;1289;110426;-39
2022/11/16 21:03:16;;;;;;;5.20;4.20;;;;;;;2.83;95.28;97492.45;421540;1292;108044;-39
2022/11/16 21:33:59;;;;;;;10.60;5.40;;;;;;;2.72;95.31;97497.36;421543;1299;97762;-40
2022/11/16 21:44:05;;;;;;;6.40;3.60;;;;;;;2.62;95.31;97497.77;421499;1288;109754;-39
2022/11/16 21:54:12;;;;;;;6.80;4.40;;;;;;;2.53;95.42;97488.84;421548;1299;109454;-41
2022/11/16 22:14:43;;;;;;;6.80;5.10;;;;;;;2.53;95.41;97514.69;421367;1299;106708;-41
2022/11/16 22:24:52;;;;;;;4.80;4.00;;;;;;;2.46;95.53;97509.61;421472;1289;97444;-39
2022/11/16 22:34:59;;;;;;;5.90;3.70;;;;;;;2.42;95.59;97510.80;421415;1299;111342;-40
2022/11/16 22:45:06;;;;;;;4.20;3.40;;;;;;;2.36;95.59;97507.59;421389;1295;107181;-41
2022/11/16 22:55:13;;;;;;;6.00;4.90;;;;;;;2.35;95.60;97504.33;421464;1292;97913;-39
2022/11/16 23:05:20;;;;;;;6.90;4.60;;;;;;;2.34;95.76;97499.27;421446;1295;107645;-39
2022/11/16 23:36:17;;;;;;;12.40;7.10;;;;;;;2.44;95.84;97480.45;421349;1294;106971;-40
2022/11/16 23:46:25;;;;;;;7.60;5.40;;;;;;;2.50;95.77;97478.53;421406;1285;97933;-41
2022/11/16 23:56:32;;;;;;;6.90;5.10;;;;;;;2.54;95.89;97481.12;421443;1299;106274;-40
